sensor_id;sensor_type;location;lat;lon;timestamp;temperature;humidity
15231;DHT22;32569;51.762;8.564;2023-06-10T00:01:32;19.50;93.30
15231;DHT22;32569;51.762;8.564;2023-06-10T00:03:59;19.50;93.60
15231;DHT22;32569;51.762;8.564;2023-06-10T00:06:26;19.50;94.00
15231;DHT22;32569;51.762;8.564;2023-06-10T00:08:54;19.40;94.20
15231;DHT22;32569;51.762;8.564;2023-06-10T00:11:21;19.30;94.20
15231;DHT22;32569;51.762;8.564;2023-06-10T00:13:47;19.50;93.40
15231;DHT22;32569;51.762;8.564;2023-06-10T00:16:20;19.40;93.50
15231;DHT22;32569;51.762;8.564;2023-06-10T00:18:48;19.30;93.80
15231;DHT22;32569;51.762;8.564;2023-06-10T00:21:16;19.30;93.80
15231;DHT22;32569;51.762;8.564;2023-06-10T00:23:44;19.30;93.80
15231;DHT22;32569;51.762;8.564;2023-06-10T00:26:11;19.30;93.20
15231;DHT22;32569;51.762;8.564;2023-06-10T00:28:37;19.50;92.70
15231;DHT22;32569;51.762;8.564;2023-06-10T00:31:04;19.40;92.80
15231;DHT22;32569;51.762;8.564;2023-06-10T00:33:30;19.30;93.40
15231;DHT22;32569;51.762;8.564;2023-06-10T00:35:58;19.20;93.70
15231;DHT22;32569;51.762;8.564;2023-06-10T00:38:31;19.20;93.80
15231;DHT22;32569;51.762;8.564;2023-06-10T00:40:58;19.20;93.20
15231;DHT22;32569;51.762;8.564;2023-06-10T00:43:25;19.20;93.40
15231;DHT22;32569;51.762;8.564;2023-06-10T00:45:52;19.20;93.20
15231;DHT22;32569;51.762;8.564;2023-06-10T00:48:19;19.10;92.50
15231;DHT22;32569;51.762;8.564;2023-06-10T00:50:46;19.10;93.40
15231;DHT22;32569;51.762;8.564;2023-06-10T00:53:14;19.10;93.20
15231;DHT22;32569;51.762;8.564;2023-06-10T00:55:41;19.00;92.60
15231;DHT22;32569;51.762;8.564;2023-06-10T00:58:08;19.00;92.50
15231;DHT22;32569;51.762;8.564;2023-06-10T01:00:34;19.00;92.50
15231;DHT22;32569;51.762;8.564;2023-06-10T01:03:02;18.90;92.10
15231;DHT22;32569;51.762;8.564;2023-06-10T01:05:33;18.90;92.40
15231;DHT22;32569;51.762;8.564;2023-06-10T01:08:03;18.80;92.70
15231;DHT22;32569;51.762;8.564;2023-06-10T01:10:38;18.80;92.60
15231;DHT22;32569;51.762;8.564;2023-06-10T01:13:08;18.90;92.50
15231;DHT22;32569;51.762;8.564;2023-06-10T01:15:37;18.90;92.00
15231;DHT22;32569;51.762;8.564;2023-06-10T01:18:06;18.90;92.40
15231;DHT22;32569;51.762;8.564;2023-06-10T01:20:35;18.80;93.10
15231;DHT22;32569;51.762;8.564;2023-06-10T01:23:07;18.60;93.90
15231;DHT22;32569;51.762;8.564;2023-06-10T01:25:36;18.50;94.10
15231;DHT22;32569;51.762;8.564;2023-06-10T01:28:07;18.50;93.80
15231;DHT22;32569;51.762;8.564;2023-06-10T01:33:27;18.60;93.50
15231;DHT22;32569;51.762;8.564;2023-06-10T01:35:56;18.60;93.20
15231;DHT22;32569;51.762;8.564;2023-06-10T01:38:25;18.70;93.10
15231;DHT22;32569;51.762;8.564;2023-06-10T01:40:53;18.70;92.90
15231;DHT22;32569;51.762;8.564;2023-06-10T01:43:21;18.60;92.80
15231;DHT22;32569;51.762;8.564;2023-06-10T01:45:48;18.60;92.60
15231;DHT22;32569;51.762;8.564;2023-06-10T01:48:16;18.50;93.00
15231;DHT22;32569;51.762;8.564;2023-06-10T01:50:43;18.50;92.40
15231;DHT22;32569;51.762;8.564;2023-06-10T01:53:10;18.60;93.00
15231;DHT22;32569;51.762;8.564;2023-06-10T01:55:38;18.50;93.90
15231;DHT22;32569;51.762;8.564;2023-06-10T01:58:07;18.50;92.80
15231;DHT22;32569;51.762;8.564;2023-06-10T02:00:34;18.40;92.80
15231;DHT22;32569;51.762;8.564;2023-06-10T02:03:03;18.40;92.80
15231;DHT22;32569;51.762;8.564;2023-06-10T02:05:33;18.40;92.60
15231;DHT22;32569;51.762;8.564;2023-06-10T02:07:59;18.30;92.60
15231;DHT22;32569;51.762;8.564;2023-06-10T02:10:29;18.10;93.50
15231;DHT22;32569;51.762;8.564;2023-06-10T02:12:57;18.10;94.50
15231;DHT22;32569;51.762;8.564;2023-06-10T02:15:24;18.00;94.60
15231;DHT22;32569;51.762;8.564;2023-06-10T02:17:51;17.90;94.70
15231;DHT22;32569;51.762;8.564;2023-06-10T02:20:18;18.00;94.70
15231;DHT22;32569;51.762;8.564;2023-06-10T02:22:45;18.00;94.30
15231;DHT22;32569;51.762;8.564;2023-06-10T02:25:11;17.90;94.40
15231;DHT22;32569;51.762;8.564;2023-06-10T02:27:38;17.90;94.60
15231;DHT22;32569;51.762;8.564;2023-06-10T02:30:08;17.90;94.20
15231;DHT22;32569;51.762;8.564;2023-06-10T02:32:35;17.80;94.30
15231;DHT22;32569;51.762;8.564;2023-06-10T02:35:02;18.00;94.30
15231;DHT22;32569;51.762;8.564;2023-06-10T02:37:29;17.80;94.50
15231;DHT22;32569;51.762;8.564;2023-06-10T02:39:56;17.80;94.50
15231;DHT22;32569;51.762;8.564;2023-06-10T02:42:22;17.80;94.60
15231;DHT22;32569;51.762;8.564;2023-06-10T02:44:52;17.80;94.70
15231;DHT22;32569;51.762;8.564;2023-06-10T02:47:22;17.70;94.50
15231;DHT22;32569;51.762;8.564;2023-06-10T02:49:49;17.70;94.10
15231;DHT22;32569;51.762;8.564;2023-06-10T02:52:16;17.70;94.60
15231;DHT22;32569;51.762;8.564;2023-06-10T02:54:42;17.40;95.00
15231;DHT22;32569;51.762;8.564;2023-06-10T02:57:10;17.40;95.00
15231;DHT22;32569;51.762;8.564;2023-06-10T02:59:36;17.40;94.70
15231;DHT22;32569;51.762;8.564;2023-06-10T03:02:04;17.30;94.90
15231;DHT22;32569;51.762;8.564;2023-06-10T03:04:32;17.30;95.10
15231;DHT22;32569;51.762;8.564;2023-06-10T03:06:58;17.00;95.60
15231;DHT22;32569;51.762;8.564;2023-06-10T03:09:29;17.00;95.90
15231;DHT22;32569;51.762;8.564;2023-06-10T03:11:55;17.10;95.70
15231;DHT22;32569;51.762;8.564;2023-06-10T03:14:22;17.10;95.50
15231;DHT22;32569;51.762;8.564;2023-06-10T03:16:50;17.10;95.50
15231;DHT22;32569;51.762;8.564;2023-06-10T03:19:16;17.10;95.20
15231;DHT22;32569;51.762;8.564;2023-06-10T03:21:45;17.20;95.00
15231;DHT22;32569;51.762;8.564;2023-06-10T03:24:14;17.20;95.20
15231;DHT22;32569;51.762;8.564;2023-06-10T03:26:42;17.10;95.20
15231;DHT22;32569;51.762;8.564;2023-06-10T03:29:08;17.20;94.80
15231;DHT22;32569;51.762;8.564;2023-06-10T03:31:36;17.20;94.30
15231;DHT22;32569;51.762;8.564;2023-06-10T03:34:04;17.10;94.90
15231;DHT22;32569;51.762;8.564;2023-06-10T03:36:30;17.00;95.40
15231;DHT22;32569;51.762;8.564;2023-06-10T03:38:58;17.10;95.30
15231;DHT22;32569;51.762;8.564;2023-06-10T03:41:25;17.10;95.50
15231;DHT22;32569;51.762;8.564;2023-06-10T03:43:52;17.20;95.50
15231;DHT22;32569;51.762;8.564;2023-06-10T03:46:18;17.20;95.20
15231;DHT22;32569;51.762;8.564;2023-06-10T03:48:45;17.10;95.40
15231;DHT22;32569;51.762;8.564;2023-06-10T03:51:11;17.30;94.90
15231;DHT22;32569;51.762;8.564;2023-06-10T03:53:38;17.30;94.60
15231;DHT22;32569;51.762;8.564;2023-06-10T03:56:06;17.20;94.80
15231;DHT22;32569;51.762;8.564;2023-06-10T03:58:33;17.20;94.60
15231;DHT22;32569;51.762;8.564;2023-06-10T04:01:00;17.20;94.40
15231;DHT22;32569;51.762;8.564;2023-06-10T04:03:26;17.20;94.40
15231;DHT22;32569;51.762;8.564;2023-06-10T04:05:54;17.20;95.00
15231;DHT22;32569;51.762;8.564;2023-06-10T04:08:20;17.20;95.30
15231;DHT22;32569;51.762;8.564;2023-06-10T04:10:47;17.30;95.20
15231;DHT22;32569;51.762;8.564;2023-06-10T04:13:15;17.30;95.20
15231;DHT22;32569;51.762;8.564;2023-06-10T04:15:42;17.20;95.60
15231;DHT22;32569;51.762;8.564;2023-06-10T04:18:08;17.30;95.20
15231;DHT22;32569;51.762;8.564;2023-06-10T04:20:35;17.30;94.90
15231;DHT22;32569;51.762;8.564;2023-06-10T04:23:02;17.40;94.70
15231;DHT22;32569;51.762;8.564;2023-06-10T04:25:28;17.40;94.80
15231;DHT22;32569;51.762;8.564;2023-06-10T04:27:55;17.50;95.30
15231;DHT22;32569;51.762;8.564;2023-06-10T04:30:23;17.40;95.80
15231;DHT22;32569;51.762;8.564;2023-06-10T04:32:50;17.50;95.10
15231;DHT22;32569;51.762;8.564;2023-06-10T04:35:17;17.60;95.40
15231;DHT22;32569;51.762;8.564;2023-06-10T04:37:44;17.80;95.10
15231;DHT22;32569;51.762;8.564;2023-06-10T04:40:11;18.00;94.70
15231;DHT22;32569;51.762;8.564;2023-06-10T04:42:41;18.10;94.50
15231;DHT22;32569;51.762;8.564;2023-06-10T04:45:08;18.20;94.30
15231;DHT22;32569;51.762;8.564;2023-06-10T04:47:36;18.40;94.50
15231;DHT22;32569;51.762;8.564;2023-06-10T04:50:03;18.50;94.60
15231;DHT22;32569;51.762;8.564;2023-06-10T04:52:30;18.70;94.10
15231;DHT22;32569;51.762;8.564;2023-06-10T04:54:57;18.80;93.50
15231;DHT22;32569;51.762;8.564;2023-06-10T04:57:27;18.90;93.80
15231;DHT22;32569;51.762;8.564;2023-06-10T04:59:54;19.00;93.20
15231;DHT22;32569;51.762;8.564;2023-06-10T05:02:20;19.00;92.40
15231;DHT22;32569;51.762;8.564;2023-06-10T05:04:48;19.10;92.70
15231;DHT22;32569;51.762;8.564;2023-06-10T05:07:15;19.20;91.90
15231;DHT22;32569;51.762;8.564;2023-06-10T05:09:42;19.30;91.80
15231;DHT22;32569;51.762;8.564;2023-06-10T05:12:09;19.40;91.70
15231;DHT22;32569;51.762;8.564;2023-06-10T05:14:35;19.40;91.60
15231;DHT22;32569;51.762;8.564;2023-06-10T05:17:03;19.50;91.70
15231;DHT22;32569;51.762;8.564;2023-06-10T05:19:31;19.70;91.30
15231;DHT22;32569;51.762;8.564;2023-06-10T05:21:59;19.90;91.40
15231;DHT22;32569;51.762;8.564;2023-06-10T05:24:26;20.10;90.90
15231;DHT22;32569;51.762;8.564;2023-06-10T05:26:52;20.30;91.10
15231;DHT22;32569;51.762;8.564;2023-06-10T05:29:22;20.30;90.50
15231;DHT22;32569;51.762;8.564;2023-06-10T05:31:49;20.50;90.10
15231;DHT22;32569;51.762;8.564;2023-06-10T05:34:15;20.50;90.30
15231;DHT22;32569;51.762;8.564;2023-06-10T05:36:42;20.60;89.40
15231;DHT22;32569;51.762;8.564;2023-06-10T05:39:10;20.80;89.80
15231;DHT22;32569;51.762;8.564;2023-06-10T05:41:37;20.90;90.00
15231;DHT22;32569;51.762;8.564;2023-06-10T05:44:04;21.10;89.30
15231;DHT22;32569;51.762;8.564;2023-06-10T05:46:30;21.10;89.10
15231;DHT22;32569;51.762;8.564;2023-06-10T05:48:57;21.20;88.30
15231;DHT22;32569;51.762;8.564;2023-06-10T05:51:24;21.20;89.70
15231;DHT22;32569;51.762;8.564;2023-06-10T05:53:50;21.20;90.20
15231;DHT22;32569;51.762;8.564;2023-06-10T05:56:18;21.70;89.60
15231;DHT22;32569;51.762;8.564;2023-06-10T05:58:45;22.10;88.20
15231;DHT22;32569;51.762;8.564;2023-06-10T06:01:12;22.30;87.50
15231;DHT22;32569;51.762;8.564;2023-06-10T06:03:39;22.40;87.20
15231;DHT22;32569;51.762;8.564;2023-06-10T06:06:05;22.70;85.70
15231;DHT22;32569;51.762;8.564;2023-06-10T06:08:32;22.70;86.20
15231;DHT22;32569;51.762;8.564;2023-06-10T06:10:59;23.00;86.30
15231;DHT22;32569;51.762;8.564;2023-06-10T06:13:27;23.20;86.40
15231;DHT22;32569;51.762;8.564;2023-06-10T06:15:53;23.20;85.10
15231;DHT22;32569;51.762;8.564;2023-06-10T06:18:20;23.20;86.50
15231;DHT22;32569;51.762;8.564;2023-06-10T06:20:46;23.40;83.90
15231;DHT22;32569;51.762;8.564;2023-06-10T06:23:13;23.50;84.70
15231;DHT22;32569;51.762;8.564;2023-06-10T06:25:40;23.50;83.30
15231;DHT22;32569;51.762;8.564;2023-06-10T06:28:07;23.50;81.00
15231;DHT22;32569;51.762;8.564;2023-06-10T06:30:35;23.50;81.20
15231;DHT22;32569;51.762;8.564;2023-06-10T06:33:02;23.50;82.10
15231;DHT22;32569;51.762;8.564;2023-06-10T06:35:30;23.70;81.90
15231;DHT22;32569;51.762;8.564;2023-06-10T06:37:57;23.80;80.60
15231;DHT22;32569;51.762;8.564;2023-06-10T06:40:24;23.90;82.10
15231;DHT22;32569;51.762;8.564;2023-06-10T06:42:50;24.20;79.70
15231;DHT22;32569;51.762;8.564;2023-06-10T06:45:17;24.20;80.70
15231;DHT22;32569;51.762;8.564;2023-06-10T06:47:45;24.30;80.30
15231;DHT22;32569;51.762;8.564;2023-06-10T06:50:12;24.30;80.20
15231;DHT22;32569;51.762;8.564;2023-06-10T06:52:38;24.00;80.70
15231;DHT22;32569;51.762;8.564;2023-06-10T06:55:05;23.60;82.60
15231;DHT22;32569;51.762;8.564;2023-06-10T06:57:32;23.40;83.60
15231;DHT22;32569;51.762;8.564;2023-06-10T06:59:59;23.20;84.00
15231;DHT22;32569;51.762;8.564;2023-06-10T07:02:25;23.00;84.10
15231;DHT22;32569;51.762;8.564;2023-06-10T07:04:53;23.00;84.30
15231;DHT22;32569;51.762;8.564;2023-06-10T07:07:21;22.90;85.00
15231;DHT22;32569;51.762;8.564;2023-06-10T07:09:47;22.90;86.00
15231;DHT22;32569;51.762;8.564;2023-06-10T07:12:14;23.00;84.90
15231;DHT22;32569;51.762;8.564;2023-06-10T07:14:41;23.00;85.20
15231;DHT22;32569;51.762;8.564;2023-06-10T07:17:07;22.90;84.40
15231;DHT22;32569;51.762;8.564;2023-06-10T07:19:34;23.00;84.00
15231;DHT22;32569;51.762;8.564;2023-06-10T07:22:02;23.20;84.40
15231;DHT22;32569;51.762;8.564;2023-06-10T07:24:29;23.20;84.40
15231;DHT22;32569;51.762;8.564;2023-06-10T07:26:55;23.20;84.50
15231;DHT22;32569;51.762;8.564;2023-06-10T07:29:22;23.20;84.20
15231;DHT22;32569;51.762;8.564;2023-06-10T07:31:49;23.20;83.50
15231;DHT22;32569;51.762;8.564;2023-06-10T07:34:16;23.40;83.70
15231;DHT22;32569;51.762;8.564;2023-06-10T07:36:42;23.40;84.70
15231;DHT22;32569;51.762;8.564;2023-06-10T07:39:10;23.40;84.80
15231;DHT22;32569;51.762;8.564;2023-06-10T07:41:37;23.50;85.00
15231;DHT22;32569;51.762;8.564;2023-06-10T07:44:03;23.50;86.00
15231;DHT22;32569;51.762;8.564;2023-06-10T07:46:30;23.50;84.20
15231;DHT22;32569;51.762;8.564;2023-06-10T07:48:57;23.50;83.10
15231;DHT22;32569;51.762;8.564;2023-06-10T07:51:24;23.60;81.20
15231;DHT22;32569;51.762;8.564;2023-06-10T07:53:50;23.70;81.70
15231;DHT22;32569;51.762;8.564;2023-06-10T07:56:18;23.70;80.10
15231;DHT22;32569;51.762;8.564;2023-06-10T07:58:46;23.60;80.80
15231;DHT22;32569;51.762;8.564;2023-06-10T08:01:13;23.60;82.20
15231;DHT22;32569;51.762;8.564;2023-06-10T08:03:40;23.60;83.60
15231;DHT22;32569;51.762;8.564;2023-06-10T08:06:06;23.70;82.60
15231;DHT22;32569;51.762;8.564;2023-06-10T08:08:33;23.70;82.00
15231;DHT22;32569;51.762;8.564;2023-06-10T08:11:05;23.80;80.90
15231;DHT22;32569;51.762;8.564;2023-06-10T08:13:33;23.90;80.60
15231;DHT22;32569;51.762;8.564;2023-06-10T08:16:00;24.00;81.10
15231;DHT22;32569;51.762;8.564;2023-06-10T08:18:26;24.20;80.60
15231;DHT22;32569;51.762;8.564;2023-06-10T08:20:53;24.30;80.10
15231;DHT22;32569;51.762;8.564;2023-06-10T08:23:20;24.40;78.50
15231;DHT22;32569;51.762;8.564;2023-06-10T08:25:47;24.40;79.00
15231;DHT22;32569;51.762;8.564;2023-06-10T08:28:13;24.50;79.40
15231;DHT22;32569;51.762;8.564;2023-06-10T08:30:41;24.50;79.20
15231;DHT22;32569;51.762;8.564;2023-06-10T08:33:08;24.50;79.00
15231;DHT22;32569;51.762;8.564;2023-06-10T08:35:34;24.60;79.60
15231;DHT22;32569;51.762;8.564;2023-06-10T08:38:01;24.70;80.30
15231;DHT22;32569;51.762;8.564;2023-06-10T08:40:27;24.90;78.60
15231;DHT22;32569;51.762;8.564;2023-06-10T08:43:00;24.80;78.70
15231;DHT22;32569;51.762;8.564;2023-06-10T08:45:32;24.80;78.20
15231;DHT22;32569;51.762;8.564;2023-06-10T08:48:03;24.80;79.40
15231;DHT22;32569;51.762;8.564;2023-06-10T08:50:33;24.90;79.20
15231;DHT22;32569;51.762;8.564;2023-06-10T08:53:00;24.90;78.90
15231;DHT22;32569;51.762;8.564;2023-06-10T08:55:31;25.00;79.50
15231;DHT22;32569;51.762;8.564;2023-06-10T08:57:59;25.10;80.20
15231;DHT22;32569;51.762;8.564;2023-06-10T09:00:26;25.20;79.90
15231;DHT22;32569;51.762;8.564;2023-06-10T09:02:54;25.20;79.90
15231;DHT22;32569;51.762;8.564;2023-06-10T09:05:23;25.20;80.20
15231;DHT22;32569;51.762;8.564;2023-06-10T09:07:51;25.30;80.20
15231;DHT22;32569;51.762;8.564;2023-06-10T09:10:21;25.40;79.80
15231;DHT22;32569;51.762;8.564;2023-06-10T09:12:48;25.40;79.30
15231;DHT22;32569;51.762;8.564;2023-06-10T09:15:18;25.50;80.50
15231;DHT22;32569;51.762;8.564;2023-06-10T09:17:48;25.40;79.30
15231;DHT22;32569;51.762;8.564;2023-06-10T09:20:14;25.30;79.50
15231;DHT22;32569;51.762;8.564;2023-06-10T09:22:43;25.20;79.70
15231;DHT22;32569;51.762;8.564;2023-06-10T09:25:11;25.40;80.60
15231;DHT22;32569;51.762;8.564;2023-06-10T09:27:44;25.40;79.50
15231;DHT22;32569;51.762;8.564;2023-06-10T09:30:24;25.50;78.80
15231;DHT22;32569;51.762;8.564;2023-06-10T09:32:52;25.50;79.10
15231;DHT22;32569;51.762;8.564;2023-06-10T09:35:19;25.50;79.30
15231;DHT22;32569;51.762;8.564;2023-06-10T09:37:51;25.50;80.50
15231;DHT22;32569;51.762;8.564;2023-06-10T09:40:18;25.60;80.00
15231;DHT22;32569;51.762;8.564;2023-06-10T09:42:44;25.60;79.00
15231;DHT22;32569;51.762;8.564;2023-06-10T09:45:14;25.70;80.10
15231;DHT22;32569;51.762;8.564;2023-06-10T09:47:41;25.70;80.20
15231;DHT22;32569;51.762;8.564;2023-06-10T09:50:09;25.80;79.40
15231;DHT22;32569;51.762;8.564;2023-06-10T09:52:37;25.80;79.70
15231;DHT22;32569;51.762;8.564;2023-06-10T09:55:08;25.90;79.60
15231;DHT22;32569;51.762;8.564;2023-06-10T09:57:36;25.90;78.70
15231;DHT22;32569;51.762;8.564;2023-06-10T10:00:05;25.90;80.10
15231;DHT22;32569;51.762;8.564;2023-06-10T10:02:33;25.90;80.40
15231;DHT22;32569;51.762;8.564;2023-06-10T10:05:09;26.00;80.20
15231;DHT22;32569;51.762;8.564;2023-06-10T10:07:39;26.10;80.10
15231;DHT22;32569;51.762;8.564;2023-06-10T10:10:08;26.20;79.50
15231;DHT22;32569;51.762;8.564;2023-06-10T10:12:35;26.30;79.10
15231;DHT22;32569;51.762;8.564;2023-06-10T10:15:03;26.30;79.30
15231;DHT22;32569;51.762;8.564;2023-06-10T10:17:34;26.30;78.80
15231;DHT22;32569;51.762;8.564;2023-06-10T10:20:03;26.30;78.90
15231;DHT22;32569;51.762;8.564;2023-06-10T10:22:35;26.40;78.60
15231;DHT22;32569;51.762;8.564;2023-06-10T10:25:09;26.50;80.10
15231;DHT22;32569;51.762;8.564;2023-06-10T10:27:41;26.50;79.00
15231;DHT22;32569;51.762;8.564;2023-06-10T10:30:11;26.40;79.10
15231;DHT22;32569;51.762;8.564;2023-06-10T10:32:43;26.40;79.20
15231;DHT22;32569;51.762;8.564;2023-06-10T10:35:17;26.50;79.30
15231;DHT22;32569;51.762;8.564;2023-06-10T10:37:44;26.50;78.20
15231;DHT22;32569;51.762;8.564;2023-06-10T10:40:13;26.50;79.10
15231;DHT22;32569;51.762;8.564;2023-06-10T10:42:41;26.60;77.80
15231;DHT22;32569;51.762;8.564;2023-06-10T10:45:09;26.60;77.10
15231;DHT22;32569;51.762;8.564;2023-06-10T10:47:36;26.60;78.80
15231;DHT22;32569;51.762;8.564;2023-06-10T10:50:13;26.80;77.90
15231;DHT22;32569;51.762;8.564;2023-06-10T10:52:51;26.80;77.70
15231;DHT22;32569;51.762;8.564;2023-06-10T10:55:19;26.70;77.50
15231;DHT22;32569;51.762;8.564;2023-06-10T10:57:54;26.70;77.20
15231;DHT22;32569;51.762;8.564;2023-06-10T11:00:28;26.80;77.20
15231;DHT22;32569;51.762;8.564;2023-06-10T11:02:58;26.80;77.10
15231;DHT22;32569;51.762;8.564;2023-06-10T11:05:36;26.90;77.70
15231;DHT22;32569;51.762;8.564;2023-06-10T11:08:03;27.00;76.80
15231;DHT22;32569;51.762;8.564;2023-06-10T11:10:32;27.00;77.10
15231;DHT22;32569;51.762;8.564;2023-06-10T11:13:00;26.90;77.10
15231;DHT22;32569;51.762;8.564;2023-06-10T11:15:31;26.80;75.40
15231;DHT22;32569;51.762;8.564;2023-06-10T11:18:08;27.00;77.10
15231;DHT22;32569;51.762;8.564;2023-06-10T11:20:43;27.10;77.40
15231;DHT22;32569;51.762;8.564;2023-06-10T11:23:10;27.10;75.20
15231;DHT22;32569;51.762;8.564;2023-06-10T11:25:40;27.10;74.90
15231;DHT22;32569;51.762;8.564;2023-06-10T11:28:17;27.10;75.40
15231;DHT22;32569;51.762;8.564;2023-06-10T11:30:44;27.10;73.40
15231;DHT22;32569;51.762;8.564;2023-06-10T11:33:14;27.10;75.10
15231;DHT22;32569;51.762;8.564;2023-06-10T11:35:41;27.20;74.20
15231;DHT22;32569;51.762;8.564;2023-06-10T11:38:08;27.10;73.30
15231;DHT22;32569;51.762;8.564;2023-06-10T11:40:34;27.10;74.70
15231;DHT22;32569;51.762;8.564;2023-06-10T11:43:04;27.10;75.70
15231;DHT22;32569;51.762;8.564;2023-06-10T11:45:31;27.20;74.60
15231;DHT22;32569;51.762;8.564;2023-06-10T11:47:58;27.30;73.90
15231;DHT22;32569;51.762;8.564;2023-06-10T11:50:29;27.40;73.80
15231;DHT22;32569;51.762;8.564;2023-06-10T11:52:55;27.40;74.20
15231;DHT22;32569;51.762;8.564;2023-06-10T11:55:24;27.40;73.90
15231;DHT22;32569;51.762;8.564;2023-06-10T11:57:50;27.50;73.20
15231;DHT22;32569;51.762;8.564;2023-06-10T12:00:24;27.50;74.90
15231;DHT22;32569;51.762;8.564;2023-06-10T12:02:56;27.50;74.10
15231;DHT22;32569;51.762;8.564;2023-06-10T12:05:23;27.50;74.60
15231;DHT22;32569;51.762;8.564;2023-06-10T12:08:09;27.50;73.20
15231;DHT22;32569;51.762;8.564;2023-06-10T12:10:40;27.60;73.30
15231;DHT22;32569;51.762;8.564;2023-06-10T12:13:07;27.60;74.10
15231;DHT22;32569;51.762;8.564;2023-06-10T12:15:35;27.70;73.50
15231;DHT22;32569;51.762;8.564;2023-06-10T12:18:02;27.80;73.80
15231;DHT22;32569;51.762;8.564;2023-06-10T12:20:31;27.80;72.90
15231;DHT22;32569;51.762;8.564;2023-06-10T12:22:59;27.90;72.80
15231;DHT22;32569;51.762;8.564;2023-06-10T12:25:28;27.90;72.80
15231;DHT22;32569;51.762;8.564;2023-06-10T12:27:56;27.80;73.20
15231;DHT22;32569;51.762;8.564;2023-06-10T12:30:24;27.90;73.30
15231;DHT22;32569;51.762;8.564;2023-06-10T12:32:53;27.80;72.30
15231;DHT22;32569;51.762;8.564;2023-06-10T12:35:21;27.70;73.50
15231;DHT22;32569;51.762;8.564;2023-06-10T12:37:57;27.80;72.80
15231;DHT22;32569;51.762;8.564;2023-06-10T12:40:31;27.90;72.50
15231;DHT22;32569;51.762;8.564;2023-06-10T12:42:59;27.90;73.40
15231;DHT22;32569;51.762;8.564;2023-06-10T12:45:26;28.00;74.50
15231;DHT22;32569;51.762;8.564;2023-06-10T12:48:04;28.10;74.00
15231;DHT22;32569;51.762;8.564;2023-06-10T12:50:32;28.00;73.00
15231;DHT22;32569;51.762;8.564;2023-06-10T12:53:02;27.90;73.10
15231;DHT22;32569;51.762;8.564;2023-06-10T12:55:28;27.90;74.00
15231;DHT22;32569;51.762;8.564;2023-06-10T12:57:55;28.00;73.30
15231;DHT22;32569;51.762;8.564;2023-06-10T13:00:28;28.00;73.10
15231;DHT22;32569;51.762;8.564;2023-06-10T13:02:56;28.00;73.80
15231;DHT22;32569;51.762;8.564;2023-06-10T13:05:24;27.90;74.20
15231;DHT22;32569;51.762;8.564;2023-06-10T13:07:50;27.90;73.50
15231;DHT22;32569;51.762;8.564;2023-06-10T13:10:17;27.90;73.00
15231;DHT22;32569;51.762;8.564;2023-06-10T13:12:45;27.80;74.10
15231;DHT22;32569;51.762;8.564;2023-06-10T13:15:12;27.90;74.50
15231;DHT22;32569;51.762;8.564;2023-06-10T13:17:38;27.90;73.60
15231;DHT22;32569;51.762;8.564;2023-06-10T13:20:06;27.90;73.70
15231;DHT22;32569;51.762;8.564;2023-06-10T13:22:35;27.90;74.50
15231;DHT22;32569;51.762;8.564;2023-06-10T13:25:02;28.00;74.00
15231;DHT22;32569;51.762;8.564;2023-06-10T13:27:29;27.90;74.20
15231;DHT22;32569;51.762;8.564;2023-06-10T13:29:56;27.90;75.10
15231;DHT22;32569;51.762;8.564;2023-06-10T13:32:23;28.10;73.70
15231;DHT22;32569;51.762;8.564;2023-06-10T13:34:49;28.00;74.30
15231;DHT22;32569;51.762;8.564;2023-06-10T13:37:16;27.90;75.10
15231;DHT22;32569;51.762;8.564;2023-06-10T13:39:45;28.00;75.70
15231;DHT22;32569;51.762;8.564;2023-06-10T13:42:12;28.10;75.40
15231;DHT22;32569;51.762;8.564;2023-06-10T13:44:39;28.10;74.90
15231;DHT22;32569;51.762;8.564;2023-06-10T13:47:06;28.10;75.80
15231;DHT22;32569;51.762;8.564;2023-06-10T13:49:32;28.20;75.30
15231;DHT22;32569;51.762;8.564;2023-06-10T13:51:59;28.10;75.10
15231;DHT22;32569;51.762;8.564;2023-06-10T13:54:26;28.20;76.00
15231;DHT22;32569;51.762;8.564;2023-06-10T13:56:54;28.30;75.50
15231;DHT22;32569;51.762;8.564;2023-06-10T13:59:21;28.20;74.70
15231;DHT22;32569;51.762;8.564;2023-06-10T14:01:48;28.10;75.20
15231;DHT22;32569;51.762;8.564;2023-06-10T14:04:14;28.10;75.80
15231;DHT22;32569;51.762;8.564;2023-06-10T14:06:41;28.00;75.40
15231;DHT22;32569;51.762;8.564;2023-06-10T14:09:07;28.10;75.60
15231;DHT22;32569;51.762;8.564;2023-06-10T14:11:34;28.20;75.00
15231;DHT22;32569;51.762;8.564;2023-06-10T14:14:02;28.20;74.80
15231;DHT22;32569;51.762;8.564;2023-06-10T14:16:29;28.20;75.10
15231;DHT22;32569;51.762;8.564;2023-06-10T14:18:55;28.20;74.80
15231;DHT22;32569;51.762;8.564;2023-06-10T14:21:22;28.30;72.60
15231;DHT22;32569;51.762;8.564;2023-06-10T14:23:49;28.30;73.30
15231;DHT22;32569;51.762;8.564;2023-06-10T14:26:17;28.20;73.90
15231;DHT22;32569;51.762;8.564;2023-06-10T14:28:43;28.20;74.70
15231;DHT22;32569;51.762;8.564;2023-06-10T14:31:11;28.30;74.50
15231;DHT22;32569;51.762;8.564;2023-06-10T14:33:38;28.30;75.60
15231;DHT22;32569;51.762;8.564;2023-06-10T14:36:07;28.30;75.30
15231;DHT22;32569;51.762;8.564;2023-06-10T14:38:34;28.20;75.60
15231;DHT22;32569;51.762;8.564;2023-06-10T14:41:00;28.30;74.80
15231;DHT22;32569;51.762;8.564;2023-06-10T14:43:27;28.30;74.70
15231;DHT22;32569;51.762;8.564;2023-06-10T14:45:54;28.40;75.50
15231;DHT22;32569;51.762;8.564;2023-06-10T14:48:22;28.30;75.00
15231;DHT22;32569;51.762;8.564;2023-06-10T14:50:49;28.40;75.50
15231;DHT22;32569;51.762;8.564;2023-06-10T14:53:16;28.40;75.50
15231;DHT22;32569;51.762;8.564;2023-06-10T14:55:43;28.60;76.20
15231;DHT22;32569;51.762;8.564;2023-06-10T14:58:10;28.70;77.00
15231;DHT22;32569;51.762;8.564;2023-06-10T15:00:36;28.70;75.80
15231;DHT22;32569;51.762;8.564;2023-06-10T15:03:03;28.50;75.80
15231;DHT22;32569;51.762;8.564;2023-06-10T15:05:31;28.50;76.80
15231;DHT22;32569;51.762;8.564;2023-06-10T15:07:58;28.40;75.80
15231;DHT22;32569;51.762;8.564;2023-06-10T15:10:25;28.30;77.40
15231;DHT22;32569;51.762;8.564;2023-06-10T15:12:52;28.50;77.60
15231;DHT22;32569;51.762;8.564;2023-06-10T15:15:21;28.50;77.10
15231;DHT22;32569;51.762;8.564;2023-06-10T15:17:48;28.40;77.40
15231;DHT22;32569;51.762;8.564;2023-06-10T15:20:14;28.30;77.70
15231;DHT22;32569;51.762;8.564;2023-06-10T15:22:42;28.40;78.40
15231;DHT22;32569;51.762;8.564;2023-06-10T15:25:09;28.50;78.70
15231;DHT22;32569;51.762;8.564;2023-06-10T15:27:36;28.60;77.40
15231;DHT22;32569;51.762;8.564;2023-06-10T15:30:04;28.70;78.20
15231;DHT22;32569;51.762;8.564;2023-06-10T15:32:31;28.70;77.70
15231;DHT22;32569;51.762;8.564;2023-06-10T15:34:57;28.60;77.70
15231;DHT22;32569;51.762;8.564;2023-06-10T15:37:24;28.60;78.50